createdAt,value
2019-05-15T00:00:12.660Z,102544.42
2019-05-15T00:02:49.601Z,102543.08
2019-05-15T00:05:20.341Z,102546.52
2019-05-15T00:07:50.968Z,102547.63
2019-05-15T00:10:21.656Z,102544.38
2019-05-15T00:12:54.185Z,102553.41
2019-05-15T00:15:24.765Z,102547.17
2019-05-15T00:17:57.781Z,102544.86
2019-05-15T00:20:34.111Z,102535.88
2019-05-15T00:23:10.030Z,102541.67
2019-05-15T00:25:40.734Z,102541.40
2019-05-15T00:28:11.407Z,102536.41
2019-05-15T00:30:42.142Z,102533.31
2019-05-15T00:33:12.817Z,102536.41
2019-05-15T00:35:43.513Z,102532.04
2019-05-15T00:38:14.100Z,102531.25
2019-05-15T00:40:44.778Z,102533.11
2019-05-15T00:43:15.344Z,102529.30
2019-05-15T00:45:46.036Z,102535.93
2019-05-15T00:48:18.678Z,102538.11
2019-05-15T00:50:50.360Z,102530.41
2019-05-15T00:53:20.962Z,102525.28
2019-05-15T00:55:51.623Z,102529.34
2019-05-15T00:58:22.223Z,102526.14
2019-05-15T01:00:52.939Z,102525.12
2019-05-15T01:03:23.511Z,102523.09
2019-05-15T01:05:54.123Z,102520.62
2019-05-15T01:08:24.817Z,102515.20
2019-05-15T01:10:55.381Z,102511.05
2019-05-15T01:13:28.160Z,102516.37
2019-05-15T01:15:59.455Z,102515.34
2019-05-15T01:18:29.976Z,102508.09
2019-05-15T01:21:04.510Z,102506.42
2019-05-15T01:23:35.162Z,102505.09
2019-05-15T01:26:08.165Z,102499.76
2019-05-15T01:28:38.598Z,102500.27
2019-05-15T01:31:09.225Z,102500.00
2019-05-15T01:33:39.913Z,102492.30
2019-05-15T01:36:10.484Z,102497.30
2019-05-15T01:38:41.037Z,102491.42
2019-05-15T01:41:11.731Z,102496.03
2019-05-15T01:43:42.380Z,102485.38
2019-05-15T01:46:39.381Z,102487.37
2019-05-15T01:49:09.771Z,102494.16
2019-05-15T01:51:40.354Z,102492.16
2019-05-15T01:54:10.820Z,102489.53
2019-05-15T01:56:41.471Z,102492.20
2019-05-15T01:59:13.076Z,102499.47
2019-05-15T02:01:52.816Z,102502.00
2019-05-15T02:04:28.960Z,102496.72
2019-05-15T02:07:00.786Z,102497.08
2019-05-15T02:09:31.435Z,102495.69
2019-05-15T02:12:08.959Z,102495.00
2019-05-15T02:14:39.638Z,102501.00
2019-05-15T02:17:11.337Z,102498.33
2019-05-15T02:19:42.031Z,102506.38
2019-05-15T02:22:18.963Z,102511.47
2019-05-15T02:24:49.380Z,102511.46
2019-05-15T02:27:19.959Z,102510.72
2019-05-15T02:30:16.363Z,102506.25
2019-05-15T02:32:39.087Z,102501.65
2019-05-15T02:35:09.989Z,102504.11
2019-05-15T02:37:41.599Z,102503.60
2019-05-15T02:40:12.313Z,102502.15
2019-05-15T02:42:49.297Z,102500.86
2019-05-15T02:45:19.809Z,102500.95
2019-05-15T02:47:50.950Z,102492.28
2019-05-15T02:50:23.456Z,102497.27
2019-05-15T02:52:54.148Z,102492.41
2019-05-15T02:55:24.797Z,102489.27
2019-05-15T02:57:58.889Z,102489.70
2019-05-15T03:00:37.725Z,102493.69
2019-05-15T03:03:00.464Z,102488.80
2019-05-15T03:05:40.710Z,102489.20
2019-05-15T03:08:19.510Z,102488.80
2019-05-15T03:10:50.332Z,102485.23
2019-05-15T03:13:23.190Z,102488.35
2019-05-15T03:15:53.788Z,102493.23
2019-05-15T03:18:30.006Z,102493.28
2019-05-15T03:21:00.679Z,102494.58
2019-05-15T03:23:31.311Z,102495.31
2019-05-15T03:26:04.409Z,102491.80
2019-05-15T03:28:34.363Z,102501.20
2019-05-15T03:31:25.897Z,102491.78
2019-05-15T03:33:44.915Z,102500.71
2019-05-15T03:36:13.666Z,102495.47
2019-05-15T03:38:44.170Z,102499.56
2019-05-15T03:41:14.815Z,102499.11
2019-05-15T03:44:09.439Z,102501.30
2019-05-15T03:46:42.238Z,102500.95
2019-05-15T03:49:12.860Z,102504.99
2019-05-15T03:51:45.845Z,102499.64
2019-05-15T03:54:18.922Z,102498.67
2019-05-15T03:56:50.836Z,102503.65
2019-05-15T03:59:32.678Z,102494.23
2019-05-15T04:02:11.233Z,102494.70
2019-05-15T04:04:41.967Z,102499.59
2019-05-15T04:07:18.600Z,102505.02
2019-05-15T04:09:52.381Z,102509.05
2019-05-15T04:12:29.213Z,102506.81
2019-05-15T04:15:05.514Z,102506.97
2019-05-15T04:17:39.608Z,102509.10
2019-05-15T04:20:11.696Z,102512.20
2019-05-15T04:22:42.353Z,102504.17
2019-05-15T04:25:19.128Z,102503.33
2019-05-15T04:27:50.165Z,102501.92
2019-05-15T04:30:20.749Z,102504.56
2019-05-15T04:32:51.367Z,102500.09
2019-05-15T04:35:22.018Z,102504.52
2019-05-15T04:37:52.632Z,102506.30
2019-05-15T04:40:24.341Z,102509.51
2019-05-15T04:42:59.327Z,102504.11
2019-05-15T04:45:34.759Z,102503.38
2019-05-15T04:48:10.451Z,102497.41
2019-05-15T04:50:43.887Z,102497.54
2019-05-15T04:53:21.682Z,102498.61
2019-05-15T04:55:52.423Z,102494.30
2019-05-15T04:58:33.578Z,102498.61
2019-05-15T05:01:04.264Z,102497.17
2019-05-15T05:03:35.104Z,102493.36
2019-05-15T05:06:09.709Z,102492.77
2019-05-15T05:08:49.045Z,102485.97
2019-05-15T05:11:23.868Z,102486.22
2019-05-15T05:14:01.952Z,102485.98
2019-05-15T05:16:41.985Z,102483.23
2019-05-15T05:19:22.936Z,102480.53
2019-05-15T05:21:53.677Z,102484.70
2019-05-15T05:24:24.407Z,102480.80
2019-05-15T05:27:00.243Z,102483.90
2019-05-15T05:29:38.644Z,102491.80
2019-05-15T05:32:09.368Z,102497.51
2019-05-15T05:35:04.101Z,102504.34
2019-05-15T05:37:34.711Z,102496.09
2019-05-15T05:40:08.054Z,102511.50
2019-05-15T05:42:39.121Z,102508.27
2019-05-15T05:45:10.498Z,102514.39
2019-05-15T05:47:43.209Z,102512.41
2019-05-15T05:50:19.586Z,102511.50
2019-05-15T05:52:50.340Z,102512.52
2019-05-15T05:55:21.075Z,102519.28
2019-05-15T05:58:05.177Z,102513.35
2019-05-15T06:00:41.109Z,102510.08
2019-05-15T06:03:11.923Z,102512.05
2019-05-15T06:05:42.801Z,102512.05
2019-05-15T06:08:13.485Z,102506.48
2019-05-15T06:10:49.695Z,102501.52
2019-05-15T06:13:20.715Z,102504.08
2019-05-15T06:16:04.014Z,102508.52
2019-05-15T06:18:38.811Z,102508.75
2019-05-15T06:21:17.809Z,102514.76
2019-05-15T06:23:55.048Z,102517.61
2019-05-15T06:26:22.120Z,102515.38
2019-05-15T06:28:52.901Z,102511.45
2019-05-15T06:31:23.621Z,102505.38
2019-05-15T06:33:54.299Z,102508.61
2019-05-15T06:36:25.013Z,102514.94
2019-05-15T06:38:55.793Z,102507.22
2019-05-15T06:41:28.641Z,102513.45
2019-05-15T06:43:59.351Z,102511.78
2019-05-15T06:46:29.946Z,102508.11
2019-05-15T06:49:00.704Z,102513.22
2019-05-15T06:51:31.355Z,102515.83
2019-05-15T06:54:02.053Z,102501.66
2019-05-15T06:56:32.783Z,102506.23
2019-05-15T06:59:03.346Z,102505.95
2019-05-15T07:01:34.000Z,102500.31
2019-05-15T07:04:11.112Z,102505.49
2019-05-15T07:07:01.413Z,102506.55
2019-05-15T07:09:38.034Z,102494.73
2019-05-15T07:12:11.655Z,102495.59
2019-05-15T07:14:42.602Z,102494.33
2019-05-15T07:17:13.330Z,102492.81
2019-05-15T07:19:43.971Z,102494.23
2019-05-15T07:22:21.573Z,102494.16
2019-05-15T07:24:52.291Z,102487.12
2019-05-15T07:27:22.957Z,102486.63
2019-05-15T07:29:54.663Z,102490.32
2019-05-15T07:32:34.454Z,102491.58
2019-05-15T07:35:05.592Z,102486.50
2019-05-15T07:37:38.803Z,102484.91
2019-05-15T07:40:13.442Z,102486.20
2019-05-15T07:42:44.185Z,102492.56
2019-05-15T07:45:15.057Z,102483.93
2019-05-15T07:47:45.724Z,102485.41
2019-05-15T07:50:16.563Z,102488.01
2019-05-15T07:52:48.543Z,102489.30
2019-05-15T07:55:19.473Z,102486.72
2019-05-15T07:57:53.206Z,102486.81
2019-05-15T08:00:24.056Z,102475.80
2019-05-15T08:02:54.658Z,102479.32
2019-05-15T08:05:28.502Z,102479.85
2019-05-15T08:08:00.887Z,102471.91
2019-05-15T08:10:31.753Z,102475.66
2019-05-15T08:13:02.533Z,102467.06
2019-05-15T08:15:38.118Z,102465.20
2019-05-15T08:18:12.677Z,102452.08
2019-05-15T08:20:41.433Z,102464.56
2019-05-15T08:23:12.010Z,102462.25
2019-05-15T08:25:42.572Z,102448.89
2019-05-15T08:28:13.384Z,102464.55
2019-05-15T08:30:44.082Z,102464.81
2019-05-15T08:33:14.904Z,102455.95
2019-05-15T08:35:51.770Z,102455.42
2019-05-15T08:38:21.776Z,102448.73
2019-05-15T08:40:52.520Z,102452.91
2019-05-15T08:43:31.389Z,102445.44
2019-05-15T08:46:01.731Z,102435.64
2019-05-15T08:48:32.945Z,102432.52
2019-05-15T08:51:05.910Z,102432.25
2019-05-15T08:53:38.008Z,102427.80
2019-05-15T08:56:08.900Z,102434.14
2019-05-15T08:58:39.542Z,102436.55
2019-05-15T09:01:11.253Z,102429.69
2019-05-15T09:03:42.065Z,102416.16
2019-05-15T09:06:12.725Z,102423.32
2019-05-15T09:08:43.304Z,102418.60
2019-05-15T09:11:14.350Z,102422.94
2019-05-15T09:13:44.951Z,102418.87
2019-05-15T09:16:18.687Z,102417.09
2019-05-15T09:18:49.459Z,102426.72
2019-05-15T09:21:20.143Z,102411.83
2019-05-15T09:23:50.747Z,102416.16
2019-05-15T09:26:21.528Z,102413.57
2019-05-15T09:28:52.184Z,102413.66
2019-05-15T09:31:22.935Z,102400.22
2019-05-15T09:33:53.568Z,102404.05
2019-05-15T09:36:24.302Z,102403.28
2019-05-15T09:38:54.985Z,102393.56
2019-05-15T09:41:28.640Z,102395.86
2019-05-15T09:44:08.523Z,102392.60
2019-05-15T09:46:39.169Z,102386.80
2019-05-15T09:49:10.868Z,102386.92
2019-05-15T09:51:41.608Z,102395.03
2019-05-15T09:54:12.257Z,102382.73
2019-05-15T09:56:43.118Z,102371.47
2019-05-15T09:59:28.149Z,102377.11
2019-05-15T10:02:03.045Z,102372.55
2019-05-15T10:04:33.772Z,102373.70
2019-05-15T10:07:08.059Z,102371.73
2019-05-15T10:09:39.005Z,102366.64
2019-05-15T10:12:09.838Z,102377.28
2019-05-15T10:14:40.544Z,102382.45
2019-05-15T10:17:12.240Z,102360.33
2019-05-15T10:19:50.476Z,102359.42
2019-05-15T10:22:21.157Z,102354.80
2019-05-15T10:24:51.860Z,102360.73
2019-05-15T10:27:22.542Z,102352.91
2019-05-15T10:29:54.322Z,102347.69
2019-05-15T10:32:28.775Z,102338.52
2019-05-15T10:34:59.251Z,102342.50
2019-05-15T10:37:30.916Z,102344.91
2019-05-15T10:40:02.586Z,102338.05
2019-05-15T10:42:33.402Z,102329.98
2019-05-15T10:45:04.829Z,102333.27
2019-05-15T10:47:38.845Z,102333.09
2019-05-15T10:50:10.068Z,102331.78
2019-05-15T10:52:44.205Z,102327.34
2019-05-15T10:55:18.885Z,102323.45
2019-05-15T10:57:50.228Z,102332.01
2019-05-15T11:00:22.813Z,102323.77
2019-05-15T11:03:04.005Z,102320.52
2019-05-15T11:05:45.182Z,102318.50
2019-05-15T11:08:13.826Z,102314.27
2019-05-15T11:10:44.851Z,102305.33
2019-05-15T11:13:18.934Z,102312.13
2019-05-15T11:15:51.858Z,102305.03
2019-05-15T11:18:25.177Z,102302.49
2019-05-15T11:20:59.742Z,102300.11
2019-05-15T11:23:33.600Z,102298.11
2019-05-15T11:26:05.848Z,102303.37
2019-05-15T11:28:39.338Z,102300.48
2019-05-15T11:31:13.187Z,102288.53
2019-05-15T11:33:49.100Z,102280.78
2019-05-15T11:36:22.773Z,102287.91
2019-05-15T11:38:55.156Z,102287.67
2019-05-15T11:41:29.548Z,102282.80
2019-05-15T11:44:01.325Z,102276.07
2019-05-15T11:46:42.484Z,102271.62
2019-05-15T11:49:32.893Z,102275.16
2019-05-15T11:52:05.715Z,102279.75
2019-05-15T11:54:38.538Z,102266.64
2019-05-15T11:57:14.634Z,102261.69
2019-05-15T11:59:46.416Z,102264.48
2019-05-15T12:02:18.881Z,102252.80
2019-05-15T12:04:49.738Z,102257.42
2019-05-15T12:07:20.415Z,102253.73
2019-05-15T12:09:51.152Z,102245.51
2019-05-15T12:12:21.952Z,102250.86
2019-05-15T12:14:57.244Z,102251.72
2019-05-15T12:17:28.583Z,102236.94
2019-05-15T12:20:05.667Z,102234.73
2019-05-15T12:22:32.681Z,102241.23
2019-05-15T12:25:03.410Z,102243.95
2019-05-15T12:27:35.100Z,102232.56
2019-05-15T12:30:09.800Z,102231.81
2019-05-15T12:32:40.425Z,102220.38
2019-05-15T12:35:11.911Z,102224.24
2019-05-15T12:37:44.476Z,102227.97
2019-05-15T13:00:42.070Z,102213.86
2019-05-15T13:03:28.952Z,102219.13
2019-05-15T13:05:59.458Z,102215.05
2019-05-15T13:08:30.047Z,102208.35
2019-05-15T13:11:01.021Z,102216.52
2019-05-15T13:13:31.656Z,102211.64
2019-05-15T13:16:02.656Z,102205.63
2019-05-15T13:18:33.312Z,102204.77
2019-05-15T13:21:04.080Z,102193.21
2019-05-15T13:23:34.634Z,102190.08
2019-05-15T13:26:12.723Z,102183.14
2019-05-15T13:28:38.688Z,102187.75
2019-05-15T13:31:09.398Z,102174.06
2019-05-15T13:33:40.099Z,102158.30
2019-05-15T13:36:10.727Z,102174.46
2019-05-15T13:38:41.424Z,102171.84
2019-05-15T13:41:13.023Z,102169.80
2019-05-15T13:43:49.091Z,102163.94
2019-05-15T13:46:20.725Z,102165.89
2019-05-15T13:48:52.673Z,102169.98
2019-05-15T13:51:23.370Z,102163.95
2019-05-15T13:53:55.141Z,102160.95
2019-05-15T13:56:25.813Z,102152.09
2019-05-15T13:58:58.544Z,102152.48
2019-05-15T14:01:29.714Z,102150.44
2019-05-15T14:04:00.394Z,102140.41
2019-05-15T14:06:32.109Z,102155.12
2019-05-15T14:09:03.144Z,102147.32
2019-05-15T14:11:34.421Z,102142.56
2019-05-15T14:14:05.283Z,102138.77
2019-05-15T14:16:38.371Z,102139.61
2019-05-15T14:19:10.910Z,102135.94
2019-05-15T14:21:41.582Z,102143.54
2019-05-15T14:24:13.246Z,102128.77
2019-05-15T14:26:44.837Z,102129.63
2019-05-15T14:29:15.496Z,102126.33
2019-05-15T14:31:48.333Z,102119.13
2019-05-15T14:34:18.812Z,102125.27
2019-05-15T14:36:49.531Z,102111.45
2019-05-15T14:39:21.009Z,102112.05
2019-05-15T14:41:51.815Z,102114.19
2019-05-15T14:44:22.319Z,102111.63
2019-05-15T14:46:52.915Z,102103.98
2019-05-15T14:49:23.532Z,102115.05
2019-05-15T14:52:05.638Z,102115.23
2019-05-15T14:54:29.051Z,102103.67
2019-05-15T14:57:04.560Z,102109.02
2019-05-15T14:59:39.383Z,102099.01
2019-05-15T15:02:09.993Z,102101.34
2019-05-15T15:04:40.675Z,102098.61
2019-05-15T15:07:11.503Z,102094.53
2019-05-15T15:09:47.786Z,102090.93
2019-05-15T15:12:18.986Z,102078.30
2019-05-15T15:14:49.591Z,102085.77
2019-05-15T15:17:23.528Z,102078.78
2019-05-15T15:20:02.182Z,102086.73
2019-05-15T15:22:33.047Z,102082.09
2019-05-15T15:25:04.094Z,102072.34
2019-05-15T15:27:34.825Z,102083.23
2019-05-15T15:30:09.331Z,102077.63
2019-05-15T15:32:40.312Z,102073.74
2019-05-15T15:35:10.991Z,102067.91
2019-05-15T15:37:41.674Z,102072.18
2019-05-15T15:40:13.372Z,102065.38
2019-05-15T15:42:44.050Z,102066.36
2019-05-15T15:45:15.551Z,102066.36
2019-05-15T15:47:51.237Z,102064.41
2019-05-15T15:50:21.881Z,102058.67
2019-05-15T15:52:52.515Z,102072.47
2019-05-15T15:55:23.229Z,102061.87
2019-05-15T15:57:54.624Z,102063.70
2019-05-15T16:00:25.320Z,102060.08
2019-05-15T16:02:56.403Z,102064.63
2019-05-15T16:05:29.092Z,102053.58
2019-05-15T16:08:08.256Z,102061.23
2019-05-15T16:10:38.253Z,102054.24
2019-05-15T16:13:09.801Z,102058.37
2019-05-15T16:15:40.737Z,102047.65
2019-05-15T16:18:18.486Z,102035.99
2019-05-15T16:20:49.186Z,102049.52
2019-05-15T16:23:19.806Z,102048.23
2019-05-15T16:25:50.472Z,102042.58
2019-05-15T16:28:21.164Z,102049.50
2019-05-15T16:30:51.857Z,102035.02
2019-05-15T16:33:22.594Z,102036.84
2019-05-15T16:35:53.175Z,102032.98
2019-05-15T16:38:28.229Z,102029.94
2019-05-15T16:40:58.503Z,102026.37
2019-05-15T16:43:30.355Z,102032.70
2019-05-15T16:46:00.944Z,102034.23
2019-05-15T16:48:31.465Z,102032.88
2019-05-15T16:51:02.167Z,102041.03
2019-05-15T16:53:32.810Z,102044.11
2019-05-15T16:56:03.582Z,102039.26
2019-05-15T16:58:34.228Z,102036.36
2019-05-15T17:01:04.985Z,102041.31
2019-05-15T17:03:37.902Z,102030.13
2019-05-15T17:06:10.097Z,102030.25
2019-05-15T17:08:40.760Z,102027.14
2019-05-15T17:11:11.332Z,102029.00
2019-05-15T17:13:42.151Z,102027.42
2019-05-15T17:16:13.748Z,102024.64
2019-05-15T17:18:44.514Z,102026.06
2019-05-15T17:21:15.214Z,102025.27
2019-05-15T17:23:51.445Z,102023.55
2019-05-15T17:26:23.982Z,102028.20
2019-05-15T17:28:54.741Z,102023.81
2019-05-15T17:31:25.305Z,102023.73
2019-05-15T17:33:58.295Z,102024.49
2019-05-15T17:36:32.012Z,102025.39
2019-05-15T17:39:01.341Z,102023.54
2019-05-15T17:41:40.557Z,102019.53
2019-05-15T17:44:11.279Z,102021.17
2019-05-15T17:46:42.258Z,102020.61
2019-05-15T17:49:17.999Z,102025.08
2019-05-15T17:51:48.955Z,102024.09
2019-05-15T17:54:19.637Z,102026.14
2019-05-15T17:56:58.457Z,102025.84
2019-05-15T17:59:28.814Z,102027.38
2019-05-15T18:01:59.716Z,102026.22
2019-05-15T18:04:32.253Z,102026.30
2019-05-15T18:07:08.761Z,102018.22
2019-05-15T18:09:50.291Z,102023.45
2019-05-15T18:12:15.247Z,102025.73
2019-05-15T18:14:47.764Z,102029.70
2019-05-15T18:17:18.651Z,102026.43
2019-05-15T18:19:51.906Z,102031.73
2019-05-15T18:22:23.911Z,102033.94
2019-05-15T18:24:54.712Z,102030.50
2019-05-15T18:27:26.411Z,102030.23
2019-05-15T18:29:58.389Z,102031.86
2019-05-15T18:32:32.157Z,102034.56
2019-05-15T18:35:02.757Z,102032.91
2019-05-15T18:37:34.711Z,102028.81
2019-05-15T18:40:09.018Z,102030.34
2019-05-15T18:42:39.100Z,102032.53
2019-05-15T18:45:17.885Z,102029.27
2019-05-15T18:47:48.317Z,102033.92
2019-05-15T18:50:20.089Z,102032.55
2019-05-15T18:52:50.738Z,102034.38
2019-05-15T18:55:21.314Z,102026.03
2019-05-15T18:57:52.090Z,102026.13
2019-05-15T19:00:22.674Z,102027.44
2019-05-15T19:02:53.247Z,102026.37
2019-05-15T19:05:23.975Z,102024.70
2019-05-15T19:07:54.701Z,102027.84
2019-05-15T19:10:27.974Z,102023.87
2019-05-15T19:12:59.363Z,102022.30
2019-05-15T19:15:30.463Z,102025.27
2019-05-15T19:18:07.841Z,102023.00
2019-05-15T19:20:39.080Z,102022.25
2019-05-15T19:23:10.388Z,102026.80
2019-05-15T19:25:41.381Z,102021.52
2019-05-15T19:28:12.115Z,102023.98
2019-05-15T19:30:42.926Z,102017.04
2019-05-15T19:33:13.918Z,102012.84
2019-05-15T19:35:44.682Z,102009.68
2019-05-15T19:38:18.568Z,102013.75
2019-05-15T19:40:50.413Z,102010.72
2019-05-15T19:43:21.091Z,102013.45
2019-05-15T19:45:51.803Z,102013.78
2019-05-15T19:48:22.619Z,102003.42
2019-05-15T19:50:53.207Z,102016.19
2019-05-15T19:53:23.877Z,102017.93
2019-05-15T19:55:54.559Z,102019.52
2019-05-15T19:58:28.660Z,102019.44
2019-05-15T20:00:59.386Z,102024.06
2019-05-15T20:03:32.168Z,102020.94
2019-05-15T20:06:02.836Z,102017.20
2019-05-15T20:08:33.680Z,102019.44
2019-05-15T20:11:06.190Z,102016.11
2019-05-15T20:13:38.383Z,102022.05
2019-05-15T20:16:09.441Z,102021.89
2019-05-15T20:18:42.117Z,102021.98
2019-05-15T20:21:12.949Z,102022.83
2019-05-15T20:23:43.885Z,102018.55
2019-05-15T20:26:17.937Z,102021.28
2019-05-15T20:28:49.144Z,102026.23
2019-05-15T20:31:19.907Z,102015.60
2019-05-15T20:34:02.390Z,102019.50
2019-05-15T20:36:25.383Z,102019.97
2019-05-15T20:38:58.828Z,102021.31
2019-05-15T20:41:30.549Z,102018.91
2019-05-15T20:44:01.538Z,102021.84
2019-05-15T20:46:32.489Z,102012.59
2019-05-15T20:49:04.663Z,102014.23
2019-05-15T20:51:38.960Z,102006.67
2019-05-15T20:54:09.349Z,102008.99
2019-05-15T20:56:39.959Z,102004.01
2019-05-15T20:59:18.084Z,101998.89
2019-05-15T21:01:50.778Z,102001.78
2019-05-15T21:04:23.878Z,102002.53
2019-05-15T21:06:53.323Z,101997.47
2019-05-15T21:09:30.196Z,101992.52
2019-05-15T21:11:59.440Z,101995.69
2019-05-15T21:14:32.293Z,101991.79
2019-05-15T21:17:04.029Z,101995.30
2019-05-15T21:19:34.911Z,101995.30
2019-05-15T21:22:05.501Z,101989.68
2019-05-15T21:24:37.924Z,101985.98
2019-05-15T21:27:12.467Z,101983.16
2019-05-15T21:29:45.096Z,101981.67
2019-05-15T21:32:19.645Z,101972.88
2019-05-15T21:34:50.858Z,101978.70
2019-05-15T21:37:21.881Z,101971.13
2019-05-15T21:39:52.533Z,101972.36
2019-05-15T21:42:23.710Z,101979.04
2019-05-15T21:44:54.340Z,101979.24
2019-05-15T21:47:28.087Z,101976.15
2019-05-15T21:50:04.703Z,101982.22
2019-05-15T21:52:35.357Z,101975.13
2019-05-15T21:55:08.933Z,101975.20
2019-05-15T21:57:41.309Z,101977.52
2019-05-15T22:00:18.107Z,101968.45
2019-05-15T22:02:50.781Z,101961.91
2019-05-15T22:05:21.486Z,101966.84
2019-05-15T22:07:52.498Z,101966.42
2019-05-15T22:10:23.620Z,101962.91
2019-05-15T22:12:54.197Z,101963.45
2019-05-15T22:15:28.971Z,101961.91
2019-05-15T22:18:00.182Z,101968.05
2019-05-15T22:20:32.889Z,101970.40
2019-05-15T22:23:13.497Z,101973.56
2019-05-15T22:25:51.811Z,101971.41
2019-05-15T22:28:22.554Z,101958.20
2019-05-15T22:30:55.301Z,101957.24
2019-05-15T22:33:28.252Z,101951.11
2019-05-15T22:35:59.293Z,101956.02
2019-05-15T22:38:30.417Z,101947.44
2019-05-15T22:41:01.227Z,101951.69
2019-05-15T22:43:39.212Z,101946.25
2019-05-15T22:46:10.938Z,101947.25
2019-05-15T22:48:42.432Z,101943.94
2019-05-15T22:51:18.215Z,101936.52
2019-05-15T22:53:48.937Z,101938.73
2019-05-15T22:56:22.132Z,101936.45
2019-05-15T22:58:55.073Z,101939.69
2019-05-15T23:01:25.880Z,101936.57
2019-05-15T23:03:58.344Z,101936.30
2019-05-15T23:06:29.001Z,101942.59
2019-05-15T23:09:11.674Z,101937.66
2019-05-15T23:11:45.431Z,101945.36
2019-05-15T23:14:17.994Z,101941.16
2019-05-15T23:16:48.521Z,101936.42
2019-05-15T23:19:19.235Z,101938.00
2019-05-15T23:21:52.040Z,101931.02
2019-05-15T23:24:23.804Z,101940.73
2019-05-15T23:26:54.479Z,101932.36
2019-05-15T23:29:30.456Z,101933.28
2019-05-15T23:32:08.031Z,101931.27
2019-05-15T23:34:38.746Z,101933.89
2019-05-15T23:37:12.484Z,101928.69
2019-05-15T23:39:43.079Z,101927.80
2019-05-15T23:42:13.757Z,101925.17
2019-05-15T23:44:44.334Z,101926.67
2019-05-15T23:47:14.936Z,101929.06
2019-05-15T23:49:45.533Z,101931.41
2019-05-15T23:52:16.152Z,101921.97
2019-05-15T23:54:46.743Z,101920.27
2019-05-15T23:57:18.016Z,101919.22
2019-05-15T23:59:48.723Z,101913.81
